sensor_id;sensor_type;location;lat;lon;timestamp;P1;durP1;ratioP1;P2;durP2;ratioP2
64052;SDS011;50299;49.524;8.536;2023-05-10T00:00:07;1.23;;;1.13;;
64052;SDS011;50299;49.524;8.536;2023-05-10T00:02:35;1.20;;;1.10;;
64052;SDS011;50299;49.524;8.536;2023-05-10T00:05:02;2.80;;;2.03;;
64052;SDS011;50299;49.524;8.536;2023-05-10T00:07:28;1.50;;;1.42;;
64052;SDS011;50299;49.524;8.536;2023-05-10T00:09:55;1.88;;;1.55;;
64052;SDS011;50299;49.524;8.536;2023-05-10T00:12:21;2.25;;;1.40;;
64052;SDS011;50299;49.524;8.536;2023-05-10T00:14:48;4.20;;;1.55;;
64052;SDS011;50299;49.524;8.536;2023-05-10T00:17:14;1.13;;;1.13;;
64052;SDS011;50299;49.524;8.536;2023-05-10T00:19:41;1.25;;;1.25;;
64052;SDS011;50299;49.524;8.536;2023-05-10T00:22:07;1.58;;;1.48;;
64052;SDS011;50299;49.524;8.536;2023-05-10T00:24:33;1.58;;;1.50;;
64052;SDS011;50299;49.524;8.536;2023-05-10T00:27:00;1.50;;;1.40;;
64052;SDS011;50299;49.524;8.536;2023-05-10T00:29:26;1.60;;;1.50;;
64052;SDS011;50299;49.524;8.536;2023-05-10T00:31:54;1.90;;;1.80;;
64052;SDS011;50299;49.524;8.536;2023-05-10T00:34:21;1.73;;;1.63;;
64052;SDS011;50299;49.524;8.536;2023-05-10T00:36:47;1.70;;;1.60;;
64052;SDS011;50299;49.524;8.536;2023-05-10T00:39:13;1.70;;;1.60;;
64052;SDS011;50299;49.524;8.536;2023-05-10T00:41:40;1.83;;;1.73;;
64052;SDS011;50299;49.524;8.536;2023-05-10T00:44:06;1.60;;;1.42;;
64052;SDS011;50299;49.524;8.536;2023-05-10T00:46:32;1.58;;;1.48;;
64052;SDS011;50299;49.524;8.536;2023-05-10T00:48:59;2.25;;;1.88;;
64052;SDS011;50299;49.524;8.536;2023-05-10T00:51:25;2.08;;;1.98;;
64052;SDS011;50299;49.524;8.536;2023-05-10T00:53:52;2.25;;;1.85;;
64052;SDS011;50299;49.524;8.536;2023-05-10T00:56:19;1.90;;;1.80;;
64052;SDS011;50299;49.524;8.536;2023-05-10T00:58:49;1.58;;;1.42;;
64052;SDS011;50299;49.524;8.536;2023-05-10T01:01:15;1.55;;;1.45;;
64052;SDS011;50299;49.524;8.536;2023-05-10T01:03:42;1.60;;;1.50;;
64052;SDS011;50299;49.524;8.536;2023-05-10T01:06:09;1.85;;;1.75;;
64052;SDS011;50299;49.524;8.536;2023-05-10T01:08:36;1.98;;;1.70;;
64052;SDS011;50299;49.524;8.536;2023-05-10T01:11:03;1.48;;;1.38;;
64052;SDS011;50299;49.524;8.536;2023-05-10T01:15:59;2.00;;;1.80;;
64052;SDS011;50299;49.524;8.536;2023-05-10T01:18:29;1.83;;;1.73;;
64052;SDS011;50299;49.524;8.536;2023-05-10T01:24:18;1.55;;;1.50;;
64052;SDS011;50299;49.524;8.536;2023-05-10T01:39:08;3.20;;;2.88;;
64052;SDS011;50299;49.524;8.536;2023-05-10T01:43:42;2.50;;;2.40;;
64052;SDS011;50299;49.524;8.536;2023-05-10T01:46:28;2.53;;;2.33;;
64052;SDS011;50299;49.524;8.536;2023-05-10T01:48:59;1.95;;;1.85;;
64052;SDS011;50299;49.524;8.536;2023-05-10T01:51:31;2.10;;;1.90;;
64052;SDS011;50299;49.524;8.536;2023-05-10T01:54:02;1.90;;;1.80;;
64052;SDS011;50299;49.524;8.536;2023-05-10T01:56:32;2.42;;;1.88;;
64052;SDS011;50299;49.524;8.536;2023-05-10T01:59:01;2.05;;;1.73;;
64052;SDS011;50299;49.524;8.536;2023-05-10T02:01:32;2.28;;;1.98;;
64052;SDS011;50299;49.524;8.536;2023-05-10T02:04:02;2.05;;;1.88;;
64052;SDS011;50299;49.524;8.536;2023-05-10T02:06:30;1.95;;;1.85;;
64052;SDS011;50299;49.524;8.536;2023-05-10T02:08:59;2.30;;;2.17;;
64052;SDS011;50299;49.524;8.536;2023-05-10T02:11:27;2.83;;;2.00;;
64052;SDS011;50299;49.524;8.536;2023-05-10T02:13:55;1.95;;;1.77;;
64052;SDS011;50299;49.524;8.536;2023-05-10T02:16:24;2.20;;;1.58;;
64052;SDS011;50299;49.524;8.536;2023-05-10T02:18:53;2.78;;;1.70;;
64052;SDS011;50299;49.524;8.536;2023-05-10T02:21:20;2.33;;;2.08;;
64052;SDS011;50299;49.524;8.536;2023-05-10T02:23:48;2.08;;;1.88;;
64052;SDS011;50299;49.524;8.536;2023-05-10T02:26:18;2.30;;;2.10;;
64052;SDS011;50299;49.524;8.536;2023-05-10T02:28:47;1.80;;;1.70;;
64052;SDS011;50299;49.524;8.536;2023-05-10T02:31:15;2.05;;;1.88;;
64052;SDS011;50299;49.524;8.536;2023-05-10T02:33:42;1.92;;;1.83;;
64052;SDS011;50299;49.524;8.536;2023-05-10T02:36:10;2.22;;;1.65;;
64052;SDS011;50299;49.524;8.536;2023-05-10T02:38:38;2.35;;;1.90;;
64052;SDS011;50299;49.524;8.536;2023-05-10T02:41:07;2.25;;;2.05;;
64052;SDS011;50299;49.524;8.536;2023-05-10T02:43:34;1.70;;;1.60;;
64052;SDS011;50299;49.524;8.536;2023-05-10T02:46:01;2.13;;;2.03;;
64052;SDS011;50299;49.524;8.536;2023-05-10T02:48:28;2.80;;;1.80;;
64052;SDS011;50299;49.524;8.536;2023-05-10T02:50:55;1.77;;;1.58;;
64052;SDS011;50299;49.524;8.536;2023-05-10T02:53:35;1.77;;;1.67;;
64052;SDS011;50299;49.524;8.536;2023-05-10T02:56:05;2.03;;;1.92;;
64052;SDS011;50299;49.524;8.536;2023-05-10T02:58:39;2.78;;;1.67;;
64052;SDS011;50299;49.524;8.536;2023-05-10T03:01:06;3.72;;;1.98;;
64052;SDS011;50299;49.524;8.536;2023-05-10T03:03:33;1.92;;;1.83;;
64052;SDS011;50299;49.524;8.536;2023-05-10T03:06:00;1.95;;;1.85;;
64052;SDS011;50299;49.524;8.536;2023-05-10T03:08:26;2.40;;;1.88;;
64052;SDS011;50299;49.524;8.536;2023-05-10T03:11:00;1.67;;;1.58;;
64052;SDS011;50299;49.524;8.536;2023-05-10T03:13:44;1.75;;;1.65;;
64052;SDS011;50299;49.524;8.536;2023-05-10T03:16:28;2.80;;;1.90;;
64052;SDS011;50299;49.524;8.536;2023-05-10T03:21:43;3.03;;;2.10;;
64052;SDS011;50299;49.524;8.536;2023-05-10T03:24:13;1.77;;;1.67;;
64052;SDS011;50299;49.524;8.536;2023-05-10T03:26:43;2.22;;;2.03;;
64052;SDS011;50299;49.524;8.536;2023-05-10T03:31:40;2.55;;;1.90;;
64052;SDS011;50299;49.524;8.536;2023-05-10T03:34:06;4.10;;;2.33;;
64052;SDS011;50299;49.524;8.536;2023-05-10T03:36:33;4.50;;;2.35;;
64052;SDS011;50299;49.524;8.536;2023-05-10T03:38:59;2.85;;;2.55;;
64052;SDS011;50299;49.524;8.536;2023-05-10T03:41:25;3.20;;;2.65;;
64052;SDS011;50299;49.524;8.536;2023-05-10T03:43:52;2.92;;;2.72;;
64052;SDS011;50299;49.524;8.536;2023-05-10T03:46:18;3.28;;;2.70;;
64052;SDS011;50299;49.524;8.536;2023-05-10T03:48:45;3.38;;;2.75;;
64052;SDS011;50299;49.524;8.536;2023-05-10T03:51:11;3.20;;;2.88;;
64052;SDS011;50299;49.524;8.536;2023-05-10T03:53:37;3.65;;;2.88;;
64052;SDS011;50299;49.524;8.536;2023-05-10T03:56:04;4.35;;;3.50;;
64052;SDS011;50299;49.524;8.536;2023-05-10T03:58:30;3.53;;;3.22;;
64052;SDS011;50299;49.524;8.536;2023-05-10T04:00:57;3.58;;;3.28;;
64052;SDS011;50299;49.524;8.536;2023-05-10T04:03:23;3.35;;;3.08;;
64052;SDS011;50299;49.524;8.536;2023-05-10T04:05:58;3.40;;;3.17;;
64052;SDS011;50299;49.524;8.536;2023-05-10T04:08:27;3.58;;;3.17;;
64052;SDS011;50299;49.524;8.536;2023-05-10T04:10:54;4.20;;;3.55;;
64052;SDS011;50299;49.524;8.536;2023-05-10T04:13:20;3.75;;;3.45;;
64052;SDS011;50299;49.524;8.536;2023-05-10T04:15:47;3.80;;;3.50;;
64052;SDS011;50299;49.524;8.536;2023-05-10T04:18:13;4.13;;;3.30;;
64052;SDS011;50299;49.524;8.536;2023-05-10T04:20:39;7.15;;;3.83;;
64052;SDS011;50299;49.524;8.536;2023-05-10T04:23:06;4.50;;;3.22;;
64052;SDS011;50299;49.524;8.536;2023-05-10T04:25:33;3.58;;;3.15;;
64052;SDS011;50299;49.524;8.536;2023-05-10T04:28:01;3.78;;;3.42;;
64052;SDS011;50299;49.524;8.536;2023-05-10T04:30:28;4.15;;;3.75;;
64052;SDS011;50299;49.524;8.536;2023-05-10T04:32:55;3.92;;;3.13;;
64052;SDS011;50299;49.524;8.536;2023-05-10T04:35:21;4.25;;;3.28;;
64052;SDS011;50299;49.524;8.536;2023-05-10T04:37:50;4.82;;;3.15;;
64052;SDS011;50299;49.524;8.536;2023-05-10T04:40:16;3.35;;;3.03;;
64052;SDS011;50299;49.524;8.536;2023-05-10T04:42:43;3.80;;;3.10;;
64052;SDS011;50299;49.524;8.536;2023-05-10T04:45:10;3.35;;;2.92;;
64052;SDS011;50299;49.524;8.536;2023-05-10T04:47:36;3.30;;;3.00;;
64052;SDS011;50299;49.524;8.536;2023-05-10T04:50:03;3.17;;;2.97;;
64052;SDS011;50299;49.524;8.536;2023-05-10T04:52:30;3.10;;;2.90;;
64052;SDS011;50299;49.524;8.536;2023-05-10T04:54:57;3.75;;;2.88;;
64052;SDS011;50299;49.524;8.536;2023-05-10T04:57:23;3.05;;;2.85;;
64052;SDS011;50299;49.524;8.536;2023-05-10T04:59:50;3.67;;;3.38;;
64052;SDS011;50299;49.524;8.536;2023-05-10T05:02:17;3.45;;;2.95;;
64052;SDS011;50299;49.524;8.536;2023-05-10T05:04:43;3.47;;;3.28;;
64052;SDS011;50299;49.524;8.536;2023-05-10T05:07:09;3.90;;;3.28;;
64052;SDS011;50299;49.524;8.536;2023-05-10T05:09:36;4.15;;;3.42;;
64052;SDS011;50299;49.524;8.536;2023-05-10T05:12:02;3.78;;;3.47;;
64052;SDS011;50299;49.524;8.536;2023-05-10T05:14:29;3.55;;;3.25;;
64052;SDS011;50299;49.524;8.536;2023-05-10T05:16:55;3.50;;;3.22;;
64052;SDS011;50299;49.524;8.536;2023-05-10T05:19:22;3.67;;;3.10;;
64052;SDS011;50299;49.524;8.536;2023-05-10T05:21:48;4.03;;;3.45;;
64052;SDS011;50299;49.524;8.536;2023-05-10T05:24:15;3.08;;;2.78;;
64052;SDS011;50299;49.524;8.536;2023-05-10T05:26:41;3.00;;;2.80;;
64052;SDS011;50299;49.524;8.536;2023-05-10T05:29:07;3.20;;;2.90;;
64052;SDS011;50299;49.524;8.536;2023-05-10T05:31:34;2.88;;;2.67;;
64052;SDS011;50299;49.524;8.536;2023-05-10T05:34:00;3.38;;;3.08;;
64052;SDS011;50299;49.524;8.536;2023-05-10T05:36:27;3.03;;;2.80;;
64052;SDS011;50299;49.524;8.536;2023-05-10T05:38:53;4.28;;;3.28;;
64052;SDS011;50299;49.524;8.536;2023-05-10T05:41:20;3.40;;;3.10;;
64052;SDS011;50299;49.524;8.536;2023-05-10T05:43:47;3.08;;;2.88;;
64052;SDS011;50299;49.524;8.536;2023-05-10T05:46:13;3.28;;;3.08;;
64052;SDS011;50299;49.524;8.536;2023-05-10T05:48:40;3.58;;;3.30;;
64052;SDS011;50299;49.524;8.536;2023-05-10T05:51:07;3.85;;;3.45;;
64052;SDS011;50299;49.524;8.536;2023-05-10T05:53:33;3.78;;;3.47;;
64052;SDS011;50299;49.524;8.536;2023-05-10T05:56:00;3.45;;;3.15;;
64052;SDS011;50299;49.524;8.536;2023-05-10T05:58:26;3.65;;;3.35;;
64052;SDS011;50299;49.524;8.536;2023-05-10T06:00:53;3.67;;;3.35;;
64052;SDS011;50299;49.524;8.536;2023-05-10T06:03:20;3.72;;;3.47;;
64052;SDS011;50299;49.524;8.536;2023-05-10T06:05:47;4.03;;;3.40;;
64052;SDS011;50299;49.524;8.536;2023-05-10T06:08:14;4.45;;;3.47;;
64052;SDS011;50299;49.524;8.536;2023-05-10T06:10:41;4.15;;;3.33;;
64052;SDS011;50299;49.524;8.536;2023-05-10T06:13:07;4.10;;;3.80;;
64052;SDS011;50299;49.524;8.536;2023-05-10T06:15:33;4.00;;;3.70;;
64052;SDS011;50299;49.524;8.536;2023-05-10T06:18:00;3.80;;;3.50;;
64052;SDS011;50299;49.524;8.536;2023-05-10T06:20:27;4.20;;;3.80;;
64052;SDS011;50299;49.524;8.536;2023-05-10T06:22:53;4.68;;;4.18;;
64052;SDS011;50299;49.524;8.536;2023-05-10T06:25:20;4.43;;;4.10;;
64052;SDS011;50299;49.524;8.536;2023-05-10T06:27:46;4.35;;;3.95;;
64052;SDS011;50299;49.524;8.536;2023-05-10T06:30:18;4.05;;;3.75;;
64052;SDS011;50299;49.524;8.536;2023-05-10T06:32:45;4.22;;;3.83;;
64052;SDS011;50299;49.524;8.536;2023-05-10T06:35:11;6.13;;;4.18;;
64052;SDS011;50299;49.524;8.536;2023-05-10T06:37:38;4.15;;;3.75;;
64052;SDS011;50299;49.524;8.536;2023-05-10T06:40:05;5.07;;;4.68;;
64052;SDS011;50299;49.524;8.536;2023-05-10T06:42:32;4.68;;;4.28;;
64052;SDS011;50299;49.524;8.536;2023-05-10T06:44:58;4.97;;;4.57;;
64052;SDS011;50299;49.524;8.536;2023-05-10T06:47:25;4.65;;;4.22;;
64052;SDS011;50299;49.524;8.536;2023-05-10T06:49:53;4.60;;;4.30;;
64052;SDS011;50299;49.524;8.536;2023-05-10T06:52:20;6.03;;;4.65;;
64052;SDS011;50299;49.524;8.536;2023-05-10T06:54:46;5.13;;;4.50;;
64052;SDS011;50299;49.524;8.536;2023-05-10T06:57:12;4.90;;;4.32;;
64052;SDS011;50299;49.524;8.536;2023-05-10T06:59:56;4.53;;;4.22;;
64052;SDS011;50299;49.524;8.536;2023-05-10T07:02:24;5.32;;;4.82;;
64052;SDS011;50299;49.524;8.536;2023-05-10T07:04:50;4.82;;;4.43;;
64052;SDS011;50299;49.524;8.536;2023-05-10T07:07:18;5.30;;;4.78;;
64052;SDS011;50299;49.524;8.536;2023-05-10T07:09:45;5.10;;;4.55;;
64052;SDS011;50299;49.524;8.536;2023-05-10T07:12:11;5.03;;;4.47;;
64052;SDS011;50299;49.524;8.536;2023-05-10T07:14:40;4.95;;;4.55;;
64052;SDS011;50299;49.524;8.536;2023-05-10T07:17:07;4.65;;;4.25;;
64052;SDS011;50299;49.524;8.536;2023-05-10T07:19:33;4.88;;;4.47;;
64052;SDS011;50299;49.524;8.536;2023-05-10T07:21:59;4.70;;;4.25;;
64052;SDS011;50299;49.524;8.536;2023-05-10T07:24:26;4.28;;;3.72;;
64052;SDS011;50299;49.524;8.536;2023-05-10T07:26:52;3.42;;;3.10;;
64052;SDS011;50299;49.524;8.536;2023-05-10T07:29:18;4.05;;;2.75;;
64052;SDS011;50299;49.524;8.536;2023-05-10T07:31:45;3.17;;;2.92;;
64052;SDS011;50299;49.524;8.536;2023-05-10T07:34:11;3.97;;;2.90;;
64052;SDS011;50299;49.524;8.536;2023-05-10T07:36:38;2.47;;;2.28;;
64052;SDS011;50299;49.524;8.536;2023-05-10T07:39:04;3.92;;;2.50;;
64052;SDS011;50299;49.524;8.536;2023-05-10T07:41:31;2.88;;;2.67;;
64052;SDS011;50299;49.524;8.536;2023-05-10T07:44:00;3.38;;;2.60;;
64052;SDS011;50299;49.524;8.536;2023-05-10T07:46:27;3.00;;;2.70;;
64052;SDS011;50299;49.524;8.536;2023-05-10T07:48:54;3.17;;;2.65;;
64052;SDS011;50299;49.524;8.536;2023-05-10T07:51:21;2.67;;;2.35;;
64052;SDS011;50299;49.524;8.536;2023-05-10T07:53:47;2.85;;;2.65;;
64052;SDS011;50299;49.524;8.536;2023-05-10T07:56:21;3.17;;;2.60;;
64052;SDS011;50299;49.524;8.536;2023-05-10T07:58:51;2.47;;;2.00;;
64052;SDS011;50299;49.524;8.536;2023-05-10T08:01:18;2.33;;;2.13;;
64052;SDS011;50299;49.524;8.536;2023-05-10T08:03:46;2.63;;;1.95;;
64052;SDS011;50299;49.524;8.536;2023-05-10T08:06:12;5.32;;;2.40;;
64052;SDS011;50299;49.524;8.536;2023-05-10T08:08:39;4.55;;;2.03;;
64052;SDS011;50299;49.524;8.536;2023-05-10T08:11:06;2.03;;;1.92;;
64052;SDS011;50299;49.524;8.536;2023-05-10T08:13:32;2.35;;;2.13;;
64052;SDS011;50299;49.524;8.536;2023-05-10T08:15:59;4.10;;;2.20;;
64052;SDS011;50299;49.524;8.536;2023-05-10T08:18:26;2.38;;;2.10;;
64052;SDS011;50299;49.524;8.536;2023-05-10T08:20:53;1.80;;;1.70;;
64052;SDS011;50299;49.524;8.536;2023-05-10T08:23:20;2.80;;;1.77;;
64052;SDS011;50299;49.524;8.536;2023-05-10T08:25:46;2.13;;;1.92;;
64052;SDS011;50299;49.524;8.536;2023-05-10T08:28:13;1.88;;;1.77;;
64052;SDS011;50299;49.524;8.536;2023-05-10T08:30:39;2.03;;;1.92;;
64052;SDS011;50299;49.524;8.536;2023-05-10T08:33:05;3.15;;;2.30;;
64052;SDS011;50299;49.524;8.536;2023-05-10T08:35:32;3.28;;;2.33;;
64052;SDS011;50299;49.524;8.536;2023-05-10T08:38:00;2.35;;;2.13;;
64052;SDS011;50299;49.524;8.536;2023-05-10T08:40:27;2.88;;;1.80;;
64052;SDS011;50299;49.524;8.536;2023-05-10T08:42:59;2.63;;;1.98;;
64052;SDS011;50299;49.524;8.536;2023-05-10T08:45:33;4.47;;;1.95;;
64052;SDS011;50299;49.524;8.536;2023-05-10T08:48:04;3.05;;;2.05;;
64052;SDS011;50299;49.524;8.536;2023-05-10T08:50:33;2.72;;;1.92;;
64052;SDS011;50299;49.524;8.536;2023-05-10T08:53:04;1.88;;;1.77;;
64052;SDS011;50299;49.524;8.536;2023-05-10T08:55:32;2.75;;;1.70;;
64052;SDS011;50299;49.524;8.536;2023-05-10T08:57:59;1.83;;;1.73;;
64052;SDS011;50299;49.524;8.536;2023-05-10T09:00:26;4.68;;;1.52;;
64052;SDS011;50299;49.524;8.536;2023-05-10T09:02:54;1.63;;;1.50;;
64052;SDS011;50299;49.524;8.536;2023-05-10T09:05:21;1.30;;;1.20;;
64052;SDS011;50299;49.524;8.536;2023-05-10T09:07:47;2.53;;;1.35;;
64052;SDS011;50299;49.524;8.536;2023-05-10T09:10:14;3.38;;;1.30;;
64052;SDS011;50299;49.524;8.536;2023-05-10T09:12:41;2.22;;;1.50;;
64052;SDS011;50299;49.524;8.536;2023-05-10T09:15:10;3.50;;;1.70;;
64052;SDS011;50299;49.524;8.536;2023-05-10T09:17:38;2.25;;;1.40;;
64052;SDS011;50299;49.524;8.536;2023-05-10T09:20:06;2.65;;;1.65;;
64052;SDS011;50299;49.524;8.536;2023-05-10T09:22:33;4.10;;;1.92;;
64052;SDS011;50299;49.524;8.536;2023-05-10T09:25:10;3.97;;;2.28;;
64052;SDS011;50299;49.524;8.536;2023-05-10T09:27:38;4.43;;;2.30;;
64052;SDS011;50299;49.524;8.536;2023-05-10T09:30:06;4.85;;;1.88;;
64052;SDS011;50299;49.524;8.536;2023-05-10T09:32:40;4.22;;;1.70;;
64052;SDS011;50299;49.524;8.536;2023-05-10T09:35:09;3.70;;;1.58;;
64052;SDS011;50299;49.524;8.536;2023-05-10T09:37:44;3.15;;;2.30;;
64052;SDS011;50299;49.524;8.536;2023-05-10T09:40:18;4.90;;;2.10;;
64052;SDS011;50299;49.524;8.536;2023-05-10T09:42:53;3.40;;;1.58;;
64052;SDS011;50299;49.524;8.536;2023-05-10T09:45:33;2.05;;;1.85;;
64052;SDS011;50299;49.524;8.536;2023-05-10T09:48:04;3.28;;;2.33;;
64052;SDS011;50299;49.524;8.536;2023-05-10T09:50:31;1.98;;;1.73;;
64052;SDS011;50299;49.524;8.536;2023-05-10T09:52:58;7.88;;;2.17;;
64052;SDS011;50299;49.524;8.536;2023-05-10T09:55:37;1.52;;;1.42;;
64052;SDS011;50299;49.524;8.536;2023-05-10T09:58:15;1.70;;;1.60;;
64052;SDS011;50299;49.524;8.536;2023-05-10T10:00:42;4.03;;;2.15;;
64052;SDS011;50299;49.524;8.536;2023-05-10T10:03:13;2.50;;;2.25;;
64052;SDS011;50299;49.524;8.536;2023-05-10T10:05:41;3.05;;;1.63;;
64052;SDS011;50299;49.524;8.536;2023-05-10T10:08:11;3.38;;;1.90;;
64052;SDS011;50299;49.524;8.536;2023-05-10T10:10:39;2.75;;;1.77;;
64052;SDS011;50299;49.524;8.536;2023-05-10T10:13:07;3.13;;;2.33;;
64052;SDS011;50299;49.524;8.536;2023-05-10T10:15:34;2.25;;;2.10;;
64052;SDS011;50299;49.524;8.536;2023-05-10T10:18:01;3.97;;;2.28;;
64052;SDS011;50299;49.524;8.536;2023-05-10T10:20:29;3.13;;;1.75;;
64052;SDS011;50299;49.524;8.536;2023-05-10T10:22:56;3.80;;;2.05;;
64052;SDS011;50299;49.524;8.536;2023-05-10T10:25:22;3.40;;;2.15;;
64052;SDS011;50299;49.524;8.536;2023-05-10T10:36:07;2.20;;;2.10;;
64052;SDS011;50299;49.524;8.536;2023-05-10T10:38:37;2.38;;;1.88;;
64052;SDS011;50299;49.524;8.536;2023-05-10T10:41:55;3.35;;;2.13;;
64052;SDS011;50299;49.524;8.536;2023-05-10T10:44:22;2.88;;;2.63;;
64052;SDS011;50299;49.524;8.536;2023-05-10T10:52:24;2.80;;;2.60;;
64052;SDS011;50299;49.524;8.536;2023-05-10T10:55:06;3.72;;;2.15;;
64052;SDS011;50299;49.524;8.536;2023-05-10T11:00:18;3.05;;;2.10;;
64052;SDS011;50299;49.524;8.536;2023-05-10T11:02:57;1.35;;;1.25;;
64052;SDS011;50299;49.524;8.536;2023-05-10T11:08:06;2.25;;;1.55;;
64052;SDS011;50299;49.524;8.536;2023-05-10T11:10:34;1.85;;;1.58;;
64052;SDS011;50299;49.524;8.536;2023-05-10T11:13:02;3.10;;;1.92;;
64052;SDS011;50299;49.524;8.536;2023-05-10T11:15:31;3.78;;;2.28;;
64052;SDS011;50299;49.524;8.536;2023-05-10T11:17:58;1.52;;;1.42;;
64052;SDS011;50299;49.524;8.536;2023-05-10T11:20:28;3.53;;;1.60;;
64052;SDS011;50299;49.524;8.536;2023-05-10T11:23:10;2.00;;;1.45;;
64052;SDS011;50299;49.524;8.536;2023-05-10T11:25:42;1.08;;;1.08;;
64052;SDS011;50299;49.524;8.536;2023-05-10T11:28:10;1.45;;;1.35;;
64052;SDS011;50299;49.524;8.536;2023-05-10T11:30:41;1.55;;;1.17;;
64052;SDS011;50299;49.524;8.536;2023-05-10T11:33:09;1.35;;;0.93;;
64052;SDS011;50299;49.524;8.536;2023-05-10T11:35:41;2.47;;;1.63;;
64052;SDS011;50299;49.524;8.536;2023-05-10T11:38:09;2.40;;;1.40;;
64052;SDS011;50299;49.524;8.536;2023-05-10T11:40:37;1.42;;;1.30;;
64052;SDS011;50299;49.524;8.536;2023-05-10T11:43:04;2.35;;;1.20;;
64052;SDS011;50299;49.524;8.536;2023-05-10T11:45:32;1.30;;;1.10;;
64052;SDS011;50299;49.524;8.536;2023-05-10T11:47:59;2.17;;;0.75;;
64052;SDS011;50299;49.524;8.536;2023-05-10T11:50:27;2.20;;;0.90;;
64052;SDS011;50299;49.524;8.536;2023-05-10T11:52:54;1.90;;;1.30;;
64052;SDS011;50299;49.524;8.536;2023-05-10T11:55:21;1.35;;;1.20;;
64052;SDS011;50299;49.524;8.536;2023-05-10T11:57:51;1.92;;;1.17;;
64052;SDS011;50299;49.524;8.536;2023-05-10T12:00:18;1.67;;;0.98;;
64052;SDS011;50299;49.524;8.536;2023-05-10T12:02:45;2.95;;;1.17;;
64052;SDS011;50299;49.524;8.536;2023-05-10T12:05:12;1.77;;;1.10;;
64052;SDS011;50299;49.524;8.536;2023-05-10T12:07:39;2.80;;;1.23;;
64052;SDS011;50299;49.524;8.536;2023-05-10T12:10:09;1.38;;;1.15;;
64052;SDS011;50299;49.524;8.536;2023-05-10T12:12:42;3.75;;;1.10;;
64052;SDS011;50299;49.524;8.536;2023-05-10T12:15:11;3.25;;;1.42;;
64052;SDS011;50299;49.524;8.536;2023-05-10T12:17:46;2.88;;;1.05;;
64052;SDS011;50299;49.524;8.536;2023-05-10T12:20:17;1.02;;;0.93;;
64052;SDS011;50299;49.524;8.536;2023-05-10T12:22:45;1.45;;;1.15;;
64052;SDS011;50299;49.524;8.536;2023-05-10T12:27:40;1.70;;;1.33;;
64052;SDS011;50299;49.524;8.536;2023-05-10T12:30:08;3.40;;;1.20;;
64052;SDS011;50299;49.524;8.536;2023-05-10T12:32:41;1.95;;;1.13;;
64052;SDS011;50299;49.524;8.536;2023-05-10T12:35:10;0.95;;;0.90;;
64052;SDS011;50299;49.524;8.536;2023-05-10T12:37:38;1.88;;;0.90;;
64052;SDS011;50299;49.524;8.536;2023-05-10T12:40:06;1.83;;;1.02;;
64052;SDS011;50299;49.524;8.536;2023-05-10T12:42:34;3.55;;;1.17;;
64052;SDS011;50299;49.524;8.536;2023-05-10T12:45:02;3.92;;;1.30;;
64052;SDS011;50299;49.524;8.536;2023-05-10T12:47:29;3.38;;;1.17;;
64052;SDS011;50299;49.524;8.536;2023-05-10T12:49:56;6.57;;;1.58;;
64052;SDS011;50299;49.524;8.536;2023-05-10T12:52:23;17.88;;;3.83;;
64052;SDS011;50299;49.524;8.536;2023-05-10T12:54:50;1.85;;;1.02;;
64052;SDS011;50299;49.524;8.536;2023-05-10T12:57:16;4.25;;;1.10;;
64052;SDS011;50299;49.524;8.536;2023-05-10T12:59:43;1.35;;;1.10;;
64052;SDS011;50299;49.524;8.536;2023-05-10T13:02:09;21.23;;;3.75;;
64052;SDS011;50299;49.524;8.536;2023-05-10T13:04:36;4.20;;;1.17;;
64052;SDS011;50299;49.524;8.536;2023-05-10T13:07:09;2.17;;;1.52;;
64052;SDS011;50299;49.524;8.536;2023-05-10T13:09:36;1.42;;;0.90;;
64052;SDS011;50299;49.524;8.536;2023-05-10T13:12:02;14.18;;;2.45;;
64052;SDS011;50299;49.524;8.536;2023-05-10T13:14:29;3.70;;;1.20;;
64052;SDS011;50299;49.524;8.536;2023-05-10T13:16:55;4.30;;;1.30;;
64052;SDS011;50299;49.524;8.536;2023-05-10T13:19:22;1.38;;;1.20;;
64052;SDS011;50299;49.524;8.536;2023-05-10T13:21:48;3.60;;;1.42;;
64052;SDS011;50299;49.524;8.536;2023-05-10T13:24:15;3.92;;;1.60;;
64052;SDS011;50299;49.524;8.536;2023-05-10T13:26:43;6.25;;;1.40;;
64052;SDS011;50299;49.524;8.536;2023-05-10T13:29:09;2.30;;;1.80;;
64052;SDS011;50299;49.524;8.536;2023-05-10T13:31:36;3.60;;;1.33;;
64052;SDS011;50299;49.524;8.536;2023-05-10T13:34:03;2.72;;;1.00;;
64052;SDS011;50299;49.524;8.536;2023-05-10T13:36:31;2.10;;;1.30;;
64052;SDS011;50299;49.524;8.536;2023-05-10T13:38:57;3.30;;;1.10;;
64052;SDS011;50299;49.524;8.536;2023-05-10T13:41:24;1.40;;;0.93;;
64052;SDS011;50299;49.524;8.536;2023-05-10T13:43:51;3.15;;;1.15;;
64052;SDS011;50299;49.524;8.536;2023-05-10T13:46:17;2.83;;;1.42;;
64052;SDS011;50299;49.524;8.536;2023-05-10T13:48:44;4.97;;;1.17;;
64052;SDS011;50299;49.524;8.536;2023-05-10T13:51:10;3.50;;;1.10;;
64052;SDS011;50299;49.524;8.536;2023-05-10T13:53:36;4.55;;;1.38;;
64052;SDS011;50299;49.524;8.536;2023-05-10T13:56:03;2.80;;;1.00;;
64052;SDS011;50299;49.524;8.536;2023-05-10T13:58:29;2.30;;;0.98;;
64052;SDS011;50299;49.524;8.536;2023-05-10T14:00:55;1.45;;;0.88;;
64052;SDS011;50299;49.524;8.536;2023-05-10T14:03:22;2.00;;;1.10;;
64052;SDS011;50299;49.524;8.536;2023-05-10T14:05:48;3.10;;;1.10;;
64052;SDS011;50299;49.524;8.536;2023-05-10T14:08:15;2.67;;;0.98;;
64052;SDS011;50299;49.524;8.536;2023-05-10T14:10:41;3.90;;;1.00;;
64052;SDS011;50299;49.524;8.536;2023-05-10T14:13:08;3.80;;;1.00;;
64052;SDS011;50299;49.524;8.536;2023-05-10T14:15:34;2.03;;;0.93;;
64052;SDS011;50299;49.524;8.536;2023-05-10T14:18:01;0.93;;;0.70;;
64052;SDS011;50299;49.524;8.536;2023-05-10T14:20:27;1.13;;;0.68;;
64052;SDS011;50299;49.524;8.536;2023-05-10T14:22:54;2.22;;;1.10;;
64052;SDS011;50299;49.524;8.536;2023-05-10T14:25:20;3.63;;;0.90;;
64052;SDS011;50299;49.524;8.536;2023-05-10T14:27:47;1.25;;;0.98;;
64052;SDS011;50299;49.524;8.536;2023-05-10T14:30:14;1.27;;;0.90;;
64052;SDS011;50299;49.524;8.536;2023-05-10T14:32:40;1.38;;;0.80;;
64052;SDS011;50299;49.524;8.536;2023-05-10T14:35:07;1.75;;;0.75;;
64052;SDS011;50299;49.524;8.536;2023-05-10T14:37:37;2.40;;;0.70;;
64052;SDS011;50299;49.524;8.536;2023-05-10T14:40:03;1.02;;;0.80;;
64052;SDS011;50299;49.524;8.536;2023-05-10T14:42:30;0.80;;;0.80;;
64052;SDS011;50299;49.524;8.536;2023-05-10T14:45:00;1.02;;;0.70;;
64052;SDS011;50299;49.524;8.536;2023-05-10T14:47:26;1.50;;;0.80;;
64052;SDS011;50299;49.524;8.536;2023-05-10T14:49:53;1.77;;;1.02;;
64052;SDS011;50299;49.524;8.536;2023-05-10T14:52:20;2.58;;;0.82;;
64052;SDS011;50299;49.524;8.536;2023-05-10T14:54:47;1.58;;;1.10;;
64052;SDS011;50299;49.524;8.536;2023-05-10T14:57:13;1.75;;;0.80;;
64052;SDS011;50299;49.524;8.536;2023-05-10T14:59:43;1.10;;;0.85;;
64052;SDS011;50299;49.524;8.536;2023-05-10T15:02:10;0.85;;;0.75;;
64052;SDS011;50299;49.524;8.536;2023-05-10T15:04:37;0.98;;;0.65;;
64052;SDS011;50299;49.524;8.536;2023-05-10T15:07:04;1.38;;;0.65;;
64052;SDS011;50299;49.524;8.536;2023-05-10T15:09:30;1.27;;;0.68;;
64052;SDS011;50299;49.524;8.536;2023-05-10T15:11:57;0.65;;;0.65;;
64052;SDS011;50299;49.524;8.536;2023-05-10T15:14:23;1.45;;;1.10;;
64052;SDS011;50299;49.524;8.536;2023-05-10T15:16:50;0.93;;;0.80;;
64052;SDS011;50299;49.524;8.536;2023-05-10T15:19:16;1.58;;;0.70;;
64052;SDS011;50299;49.524;8.536;2023-05-10T15:21:43;2.30;;;0.70;;
64052;SDS011;50299;49.524;8.536;2023-05-10T15:24:12;1.23;;;0.88;;
64052;SDS011;50299;49.524;8.536;2023-05-10T15:26:38;1.92;;;0.80;;
64052;SDS011;50299;49.524;8.536;2023-05-10T15:29:04;3.40;;;0.80;;
64052;SDS011;50299;49.524;8.536;2023-05-10T15:31:31;2.95;;;0.95;;
64052;SDS011;50299;49.524;8.536;2023-05-10T15:33:58;0.90;;;0.60;;
64052;SDS011;50299;49.524;8.536;2023-05-10T15:36:27;0.85;;;0.70;;
64052;SDS011;50299;49.524;8.536;2023-05-10T15:38:53;1.10;;;0.52;;